sensor_id;sensor_type;location;lat;lon;timestamp;pressure;altitude;pressure_sealevel;temperature;humidity
48200;BME280;33990;44.602;10.976;2022-08-19T00:02:14;100377.00;;;25.92;66.76
48200;BME280;33990;44.602;10.976;2022-08-19T00:04:42;100368.50;;;25.95;66.83
48200;BME280;33990;44.602;10.976;2022-08-19T00:07:09;100362.88;;;25.96;66.57
48200;BME280;33990;44.602;10.976;2022-08-19T00:09:37;100372.72;;;25.97;66.47
48200;BME280;33990;44.602;10.976;2022-08-19T00:12:04;100376.06;;;25.99;66.09
48200;BME280;33990;44.602;10.976;2022-08-19T00:14:31;100375.22;;;25.99;66.21
48200;BME280;33990;44.602;10.976;2022-08-19T00:16:59;100383.16;;;26.00;66.00
48200;BME280;33990;44.602;10.976;2022-08-19T00:19:28;100384.88;;;26.01;66.07
48200;BME280;33990;44.602;10.976;2022-08-19T00:21:56;100374.66;;;26.03;66.05
48200;BME280;33990;44.602;10.976;2022-08-19T00:24:23;100362.97;;;26.03;65.90
48200;BME280;33990;44.602;10.976;2022-08-19T00:26:51;100344.84;;;26.03;65.77
48200;BME280;33990;44.602;10.976;2022-08-19T00:29:20;100326.69;;;26.04;65.67
48200;BME280;33990;44.602;10.976;2022-08-19T00:31:47;100318.38;;;26.05;65.78
48200;BME280;33990;44.602;10.976;2022-08-19T00:34:16;100324.63;;;26.06;65.56
48200;BME280;33990;44.602;10.976;2022-08-19T00:36:44;100333.78;;;26.05;65.44
48200;BME280;33990;44.602;10.976;2022-08-19T00:39:13;100350.72;;;26.07;65.41
48200;BME280;33990;44.602;10.976;2022-08-19T00:41:42;100353.44;;;26.07;65.42
48200;BME280;33990;44.602;10.976;2022-08-19T00:44:13;100365.13;;;26.07;65.33
48200;BME280;33990;44.602;10.976;2022-08-19T00:46:44;100365.97;;;26.08;65.15
48200;BME280;33990;44.602;10.976;2022-08-19T00:49:29;100373.25;;;26.07;65.17
48200;BME280;33990;44.602;10.976;2022-08-19T00:52:11;100382.06;;;26.09;65.01
48200;BME280;33990;44.602;10.976;2022-08-19T00:54:40;100375.78;;;26.09;65.08
48200;BME280;33990;44.602;10.976;2022-08-19T00:57:10;100384.78;;;26.09;65.21
48200;BME280;33990;44.602;10.976;2022-08-19T00:59:44;100384.78;;;26.09;65.09
48200;BME280;33990;44.602;10.976;2022-08-19T01:02:30;100390.00;;;26.11;65.02
48200;BME280;33990;44.602;10.976;2022-08-19T01:05:00;100381.03;;;26.10;64.91
48200;BME280;33990;44.602;10.976;2022-08-19T01:07:27;100383.56;;;26.12;65.02
48200;BME280;33990;44.602;10.976;2022-08-19T01:10:03;100378.97;;;26.12;65.05
48200;BME280;33990;44.602;10.976;2022-08-19T01:12:30;100370.81;;;26.12;64.76
48200;BME280;33990;44.602;10.976;2022-08-19T01:14:58;100357.25;;;26.12;65.01
48200;BME280;33990;44.602;10.976;2022-08-19T01:17:27;100347.28;;;26.13;65.02
48200;BME280;33990;44.602;10.976;2022-08-19T01:19:54;100350.16;;;26.11;64.94
48200;BME280;33990;44.602;10.976;2022-08-19T01:25:02;100356.25;;;26.13;64.79
48200;BME280;33990;44.602;10.976;2022-08-19T01:27:44;100359.81;;;26.14;64.79
48200;BME280;33990;44.602;10.976;2022-08-19T01:30:18;100361.47;;;26.15;64.86
48200;BME280;33990;44.602;10.976;2022-08-19T01:32:48;100362.31;;;26.16;64.84
48200;BME280;33990;44.602;10.976;2022-08-19T01:35:16;100365.03;;;26.16;64.77
48200;BME280;33990;44.602;10.976;2022-08-19T01:40:19;100349.59;;;26.16;64.76
48200;BME280;33990;44.602;10.976;2022-08-19T01:42:50;100353.13;;;26.17;64.73
48200;BME280;33990;44.602;10.976;2022-08-19T01:45:20;100346.88;;;26.16;64.59
48200;BME280;33990;44.602;10.976;2022-08-19T01:47:48;100353.13;;;26.17;64.81
48200;BME280;33990;44.602;10.976;2022-08-19T01:50:30;100341.28;;;26.18;64.57
48200;BME280;33990;44.602;10.976;2022-08-19T01:52:59;100337.72;;;26.17;64.56
48200;BME280;33990;44.602;10.976;2022-08-19T01:55:34;100335.84;;;26.18;64.58
48200;BME280;33990;44.602;10.976;2022-08-19T01:58:15;100330.44;;;26.18;64.49
48200;BME280;33990;44.602;10.976;2022-08-19T02:00:44;100315.16;;;26.17;64.78
48200;BME280;33990;44.602;10.976;2022-08-19T02:03:12;100314.31;;;26.16;64.48
48200;BME280;33990;44.602;10.976;2022-08-19T02:05:41;100319.56;;;26.18;64.60
48200;BME280;33990;44.602;10.976;2022-08-19T02:08:09;100313.31;;;26.17;64.40
48200;BME280;33990;44.602;10.976;2022-08-19T02:10:43;100292.44;;;26.18;64.34
48200;BME280;33990;44.602;10.976;2022-08-19T02:13:12;100290.75;;;26.17;64.37
48200;BME280;33990;44.602;10.976;2022-08-19T02:15:41;100288.03;;;26.17;63.93
48200;BME280;33990;44.602;10.976;2022-08-19T02:18:08;100298.88;;;26.17;63.92
48200;BME280;33990;44.602;10.976;2022-08-19T02:20:37;100300.75;;;26.16;63.72
48200;BME280;33990;44.602;10.976;2022-08-19T02:23:06;100305.34;;;26.16;63.60
48200;BME280;33990;44.602;10.976;2022-08-19T02:25:44;100315.34;;;26.15;63.36
48200;BME280;33990;44.602;10.976;2022-08-19T02:28:11;100306.38;;;26.14;63.15
48200;BME280;33990;44.602;10.976;2022-08-19T02:30:45;100295.53;;;26.14;63.38
48200;BME280;33990;44.602;10.976;2022-08-19T02:33:13;100289.91;;;26.16;63.06
48200;BME280;33990;44.602;10.976;2022-08-19T02:35:45;100276.53;;;26.14;62.97
48200;BME280;33990;44.602;10.976;2022-08-19T02:38:13;100274.66;;;26.15;62.53
48200;BME280;33990;44.602;10.976;2022-08-19T02:41:01;100293.66;;;26.15;62.22
48200;BME280;33990;44.602;10.976;2022-08-19T02:43:30;100293.66;;;26.15;62.09
48200;BME280;33990;44.602;10.976;2022-08-19T02:46:01;100291.97;;;26.14;61.92
48200;BME280;33990;44.602;10.976;2022-08-19T02:48:29;100306.38;;;26.14;61.59
48200;BME280;33990;44.602;10.976;2022-08-19T02:50:57;100303.66;;;26.14;61.29
48200;BME280;33990;44.602;10.976;2022-08-19T02:53:26;100308.25;;;26.14;61.21
48200;BME280;33990;44.602;10.976;2022-08-19T02:55:54;100295.72;;;26.13;61.40
48200;BME280;33990;44.602;10.976;2022-08-19T02:58:22;100292.16;;;26.12;61.04
48200;BME280;33990;44.602;10.976;2022-08-19T03:00:53;100278.59;;;26.12;60.89
48200;BME280;33990;44.602;10.976;2022-08-19T03:03:21;100276.91;;;26.11;60.97
48200;BME280;33990;44.602;10.976;2022-08-19T03:05:48;100265.22;;;26.11;61.12
48200;BME280;33990;44.602;10.976;2022-08-19T03:08:23;100260.84;;;26.10;60.91
48200;BME280;33990;44.602;10.976;2022-08-19T03:10:51;100265.44;;;26.09;61.00
48200;BME280;33990;44.602;10.976;2022-08-19T03:13:20;100261.00;;;26.08;60.89
48200;BME280;33990;44.602;10.976;2022-08-19T03:15:48;100264.75;;;26.07;60.71
48200;BME280;33990;44.602;10.976;2022-08-19T03:18:16;100256.81;;;26.06;60.62
48200;BME280;33990;44.602;10.976;2022-08-19T03:20:49;100257.81;;;26.05;60.45
48200;BME280;33990;44.602;10.976;2022-08-19T03:23:17;100255.31;;;26.03;60.27
48200;BME280;33990;44.602;10.976;2022-08-19T03:25:46;100259.69;;;26.04;60.21
48200;BME280;33990;44.602;10.976;2022-08-19T03:28:29;100247.19;;;26.03;60.27
48200;BME280;33990;44.602;10.976;2022-08-19T03:31:04;100246.34;;;26.03;60.13
48200;BME280;33990;44.602;10.976;2022-08-19T03:33:52;100240.09;;;26.02;60.34
48200;BME280;33990;44.602;10.976;2022-08-19T03:36:22;100252.59;;;26.03;60.32
48200;BME280;33990;44.602;10.976;2022-08-19T03:38:55;100245.50;;;26.02;60.49
48200;BME280;33990;44.602;10.976;2022-08-19T03:41:31;100256.34;;;26.02;60.41
48200;BME280;33990;44.602;10.976;2022-08-19T03:44:17;100271.59;;;26.03;60.42
48200;BME280;33990;44.602;10.976;2022-08-19T03:46:47;100286.00;;;26.04;60.42
48200;BME280;33990;44.602;10.976;2022-08-19T03:49:15;100284.94;;;26.05;60.71
48200;BME280;33990;44.602;10.976;2022-08-19T03:51:46;100306.47;;;26.06;60.67
48200;BME280;33990;44.602;10.976;2022-08-19T03:54:15;100307.31;;;26.07;60.78
48200;BME280;33990;44.602;10.976;2022-08-19T03:56:44;100307.13;;;26.08;60.64
48200;BME280;33990;44.602;10.976;2022-08-19T03:59:17;100309.84;;;26.08;60.59
48200;BME280;33990;44.602;10.976;2022-08-19T04:01:45;100313.38;;;26.09;60.75
48200;BME280;33990;44.602;10.976;2022-08-19T04:04:13;100315.25;;;26.08;60.87
48200;BME280;33990;44.602;10.976;2022-08-19T04:06:40;100318.81;;;26.09;60.95
48200;BME280;33990;44.602;10.976;2022-08-19T04:09:09;100318.81;;;26.09;61.04
48200;BME280;33990;44.602;10.976;2022-08-19T04:11:44;100326.13;;;26.08;60.97
48200;BME280;33990;44.602;10.976;2022-08-19T04:14:14;100336.97;;;26.08;61.02
48200;BME280;33990;44.602;10.976;2022-08-19T04:16:42;100329.88;;;26.07;61.00
48200;BME280;33990;44.602;10.976;2022-08-19T04:19:11;100323.41;;;26.08;61.13
48200;BME280;33990;44.602;10.976;2022-08-19T04:21:39;100317.34;;;26.06;61.06
48200;BME280;33990;44.602;10.976;2022-08-19T04:24:09;100317.34;;;26.06;61.14
48200;BME280;33990;44.602;10.976;2022-08-19T04:26:36;100312.94;;;26.05;61.04
48200;BME280;33990;44.602;10.976;2022-08-19T04:29:08;100321.94;;;26.06;61.15
48200;BME280;33990;44.602;10.976;2022-08-19T04:31:40;100320.06;;;26.06;61.22
48200;BME280;33990;44.602;10.976;2022-08-19T04:34:09;100316.50;;;26.06;61.29
48200;BME280;33990;44.602;10.976;2022-08-19T04:36:39;100331.94;;;26.05;61.31
48200;BME280;33990;44.602;10.976;2022-08-19T04:39:12;100326.31;;;26.07;61.13
48200;BME280;33990;44.602;10.976;2022-08-19T04:41:40;100340.06;;;26.05;61.16
48200;BME280;33990;44.602;10.976;2022-08-19T04:44:26;100345.50;;;26.05;61.29
48200;BME280;33990;44.602;10.976;2022-08-19T04:46:54;100357.19;;;26.06;61.33
48200;BME280;33990;44.602;10.976;2022-08-19T04:49:22;100357.19;;;26.06;61.26
48200;BME280;33990;44.602;10.976;2022-08-19T04:51:51;100348.00;;;26.07;61.46
48200;BME280;33990;44.602;10.976;2022-08-19T04:54:23;100356.16;;;26.07;61.47
48200;BME280;33990;44.602;10.976;2022-08-19T04:57:07;100357.00;;;26.07;61.33
48200;BME280;33990;44.602;10.976;2022-08-19T04:59:38;100346.13;;;26.07;61.40
48200;BME280;33990;44.602;10.976;2022-08-19T05:02:07;100321.72;;;26.07;61.81
48200;BME280;33990;44.602;10.976;2022-08-19T05:04:36;100311.91;;;26.06;61.88
48200;BME280;33990;44.602;10.976;2022-08-19T05:07:09;100341.09;;;26.04;61.75
48200;BME280;33990;44.602;10.976;2022-08-19T05:09:37;100347.53;;;26.03;61.82
48200;BME280;33990;44.602;10.976;2022-08-19T05:12:25;100349.63;;;26.01;61.56
48200;BME280;33990;44.602;10.976;2022-08-19T05:14:56;100354.00;;;26.02;61.63
48200;BME280;33990;44.602;10.976;2022-08-19T05:17:25;100359.44;;;26.02;61.58
48200;BME280;33990;44.602;10.976;2022-08-19T05:19:56;100361.31;;;26.02;61.53
48200;BME280;33990;44.602;10.976;2022-08-19T05:22:45;100354.19;;;26.01;61.46
48200;BME280;33990;44.602;10.976;2022-08-19T05:25:17;100340.63;;;26.01;61.92
48200;BME280;33990;44.602;10.976;2022-08-19T05:27:48;100337.25;;;25.99;61.52
48200;BME280;33990;44.602;10.976;2022-08-19T05:30:16;100338.47;;;25.96;61.38
48200;BME280;33990;44.602;10.976;2022-08-19T05:32:44;100340.53;;;25.94;61.35
48200;BME280;33990;44.602;10.976;2022-08-19T05:35:11;100336.16;;;25.93;61.26
48200;BME280;33990;44.602;10.976;2022-08-19T05:37:39;100340.91;;;25.91;61.24
48200;BME280;33990;44.602;10.976;2022-08-19T05:40:08;100350.91;;;25.91;61.18
48200;BME280;33990;44.602;10.976;2022-08-19T05:42:55;100354.66;;;25.89;61.21
48200;BME280;33990;44.602;10.976;2022-08-19T05:45:22;100351.28;;;25.87;60.94
48200;BME280;33990;44.602;10.976;2022-08-19T05:47:50;100359.63;;;25.86;60.73
48200;BME280;33990;44.602;10.976;2022-08-19T05:50:17;100366.91;;;25.85;60.63
48200;BME280;33990;44.602;10.976;2022-08-19T05:52:44;100369.78;;;25.84;60.63
48200;BME280;33990;44.602;10.976;2022-08-19T05:55:16;100368.59;;;25.86;60.62
48200;BME280;33990;44.602;10.976;2022-08-19T05:57:47;100355.22;;;25.85;60.51
48200;BME280;33990;44.602;10.976;2022-08-19T06:00:15;100356.06;;;25.85;60.50
48200;BME280;33990;44.602;10.976;2022-08-19T06:02:49;100384.03;;;25.86;60.23
48200;BME280;33990;44.602;10.976;2022-08-19T06:05:18;100398.63;;;25.85;60.29
48200;BME280;33990;44.602;10.976;2022-08-19T06:07:47;100400.28;;;25.86;60.19
48200;BME280;33990;44.602;10.976;2022-08-19T06:10:14;100418.44;;;25.85;60.25
48200;BME280;33990;44.602;10.976;2022-08-19T06:12:41;100414.88;;;25.85;60.56
48200;BME280;33990;44.602;10.976;2022-08-19T06:15:11;100417.59;;;25.85;60.81
48200;BME280;33990;44.602;10.976;2022-08-19T06:17:41;100426.75;;;25.84;60.84
48200;BME280;33990;44.602;10.976;2022-08-19T06:20:11;100423.19;;;25.83;60.73
48200;BME280;33990;44.602;10.976;2022-08-19T06:22:43;100425.91;;;25.83;60.50
48200;BME280;33990;44.602;10.976;2022-08-19T06:25:13;100416.28;;;25.81;60.16
48200;BME280;33990;44.602;10.976;2022-08-19T06:27:41;100417.28;;;25.80;59.98
48200;BME280;33990;44.602;10.976;2022-08-19T06:30:29;100423.75;;;25.79;59.69
48200;BME280;33990;44.602;10.976;2022-08-19T06:32:56;100420.34;;;25.77;59.67
48200;BME280;33990;44.602;10.976;2022-08-19T06:35:23;100434.91;;;25.76;59.60
48200;BME280;33990;44.602;10.976;2022-08-19T06:37:52;100445.75;;;25.76;59.45
48200;BME280;33990;44.602;10.976;2022-08-19T06:40:19;100445.75;;;25.76;59.53
48200;BME280;33990;44.602;10.976;2022-08-19T06:42:47;100446.81;;;25.75;59.13
48200;BME280;33990;44.602;10.976;2022-08-19T06:45:24;100452.22;;;25.75;58.95
48200;BME280;33990;44.602;10.976;2022-08-19T06:48:02;100461.38;;;25.74;58.57
48200;BME280;33990;44.602;10.976;2022-08-19T06:50:29;100450.72;;;25.72;58.39
48200;BME280;33990;44.602;10.976;2022-08-19T06:52:56;100458.84;;;25.72;57.98
48200;BME280;33990;44.602;10.976;2022-08-19T06:55:29;100463.44;;;25.72;58.03
48200;BME280;33990;44.602;10.976;2022-08-19T06:58:02;100468.84;;;25.72;57.71
48200;BME280;33990;44.602;10.976;2022-08-19T07:00:31;100475.13;;;25.72;57.66
48200;BME280;33990;44.602;10.976;2022-08-19T07:02:59;100466.13;;;25.72;57.49
48200;BME280;33990;44.602;10.976;2022-08-19T07:05:39;100467.84;;;25.73;57.55
48200;BME280;33990;44.602;10.976;2022-08-19T07:08:12;100469.69;;;25.72;57.38
48200;BME280;33990;44.602;10.976;2022-08-19T07:10:43;100467.84;;;25.73;57.74
48200;BME280;33990;44.602;10.976;2022-08-19T07:13:10;100462.59;;;25.71;57.65
48200;BME280;33990;44.602;10.976;2022-08-19T07:15:38;100440.91;;;25.71;57.80
48200;BME280;33990;44.602;10.976;2022-08-19T07:18:06;100447.16;;;25.72;57.67
48200;BME280;33990;44.602;10.976;2022-08-19T07:20:38;100454.47;;;25.71;57.69
48200;BME280;33990;44.602;10.976;2022-08-19T07:23:08;100445.28;;;25.72;57.81
48200;BME280;33990;44.602;10.976;2022-08-19T07:25:42;100451.75;;;25.71;57.68
48200;BME280;33990;44.602;10.976;2022-08-19T07:28:10;100459.72;;;25.73;57.69
48200;BME280;33990;44.602;10.976;2022-08-19T07:30:51;100465.13;;;25.73;57.81
48200;BME280;33990;44.602;10.976;2022-08-19T07:33:19;100478.69;;;25.73;57.91
48200;BME280;33990;44.602;10.976;2022-08-19T07:35:46;100482.41;;;25.72;57.86
48200;BME280;33990;44.602;10.976;2022-08-19T07:38:15;100485.13;;;25.72;57.87
48200;BME280;33990;44.602;10.976;2022-08-19T07:40:44;100492.41;;;25.71;57.64
48200;BME280;33990;44.602;10.976;2022-08-19T07:43:12;100494.09;;;25.72;57.79
48200;BME280;33990;44.602;10.976;2022-08-19T07:45:44;100491.56;;;25.71;57.93
48200;BME280;33990;44.602;10.976;2022-08-19T07:48:12;100497.84;;;25.71;57.76
48200;BME280;33990;44.602;10.976;2022-08-19T07:50:40;100493.25;;;25.72;58.09
48200;BME280;33990;44.602;10.976;2022-08-19T07:53:07;100490.53;;;25.72;57.97
48200;BME280;33990;44.602;10.976;2022-08-19T07:55:34;100495.97;;;25.72;57.93
48200;BME280;33990;44.602;10.976;2022-08-19T07:58:14;100495.97;;;25.72;57.98
48200;BME280;33990;44.602;10.976;2022-08-19T08:00:43;100492.41;;;25.71;57.98
48200;BME280;33990;44.602;10.976;2022-08-19T08:03:12;100485.97;;;25.72;58.13
48200;BME280;33990;44.602;10.976;2022-08-19T08:05:40;100481.41;;;25.73;58.12
48200;BME280;33990;44.602;10.976;2022-08-19T08:08:26;100474.94;;;25.74;58.17
48200;BME280;33990;44.602;10.976;2022-08-19T08:11:19;100474.94;;;25.74;58.26
48200;BME280;33990;44.602;10.976;2022-08-19T08:13:48;100476.63;;;25.75;58.43
48200;BME280;33990;44.602;10.976;2022-08-19T08:16:36;100481.00;;;25.76;57.90
48200;BME280;33990;44.602;10.976;2022-08-19T08:19:06;100484.56;;;25.76;57.80
48200;BME280;33990;44.602;10.976;2022-08-19T08:21:50;100481.72;;;25.78;57.97
48200;BME280;33990;44.602;10.976;2022-08-19T08:24:18;100485.44;;;25.77;57.69
48200;BME280;33990;44.602;10.976;2022-08-19T08:26:45;100482.31;;;25.65;57.71
48200;BME280;33990;44.602;10.976;2022-08-19T08:29:23;100473.63;;;25.47;58.62
48200;BME280;33990;44.602;10.976;2022-08-19T08:31:52;100471.03;;;25.30;59.32
48200;BME280;33990;44.602;10.976;2022-08-19T08:34:26;100461.78;;;25.25;60.48
48200;BME280;33990;44.602;10.976;2022-08-19T08:36:53;100469.75;;;25.18;60.76
48200;BME280;33990;44.602;10.976;2022-08-19T08:39:21;100470.13;;;25.15;60.55
48200;BME280;33990;44.602;10.976;2022-08-19T08:41:58;100471.16;;;25.14;60.58
48200;BME280;33990;44.602;10.976;2022-08-19T08:47:20;100486.56;;;25.13;59.88
48200;BME280;33990;44.602;10.976;2022-08-19T08:52:28;100495.88;;;25.11;60.19
48200;BME280;33990;44.602;10.976;2022-08-19T08:55:04;100500.44;;;25.10;59.98
48200;BME280;33990;44.602;10.976;2022-08-19T09:00:22;100506.38;;;25.06;60.01
48200;BME280;33990;44.602;10.976;2022-08-19T09:02:51;100504.69;;;25.05;59.72
48200;BME280;33990;44.602;10.976;2022-08-19T09:05:21;100503.66;;;25.06;60.59
48200;BME280;33990;44.602;10.976;2022-08-19T09:08:10;100509.94;;;25.06;60.42
48200;BME280;33990;44.602;10.976;2022-08-19T09:10:44;100521.59;;;25.07;60.12
48200;BME280;33990;44.602;10.976;2022-08-19T09:16:19;100507.22;;;25.06;59.10
48200;BME280;33990;44.602;10.976;2022-08-19T09:18:57;100518.41;;;25.03;59.02
48200;BME280;33990;44.602;10.976;2022-08-19T09:21:26;100525.03;;;25.01;59.11
48200;BME280;33990;44.602;10.976;2022-08-19T09:24:01;100526.91;;;25.00;59.14
48200;BME280;33990;44.602;10.976;2022-08-19T09:26:30;100528.09;;;24.98;58.95
48200;BME280;33990;44.602;10.976;2022-08-19T09:29:19;100532.31;;;25.00;59.13
48200;BME280;33990;44.602;10.976;2022-08-19T09:31:49;100529.06;;;25.05;59.30
48200;BME280;33990;44.602;10.976;2022-08-19T09:34:17;100535.66;;;25.10;59.62
48200;BME280;33990;44.602;10.976;2022-08-19T09:36:49;100538.69;;;25.15;59.40
48200;BME280;33990;44.602;10.976;2022-08-19T09:39:22;100534.44;;;25.21;59.19
48200;BME280;33990;44.602;10.976;2022-08-19T09:41:49;100532.88;;;25.27;59.23
48200;BME280;33990;44.602;10.976;2022-08-19T09:44:17;100534.19;;;25.31;59.09
48200;BME280;33990;44.602;10.976;2022-08-19T09:46:46;100531.78;;;25.36;58.97
48200;BME280;33990;44.602;10.976;2022-08-19T09:49:19;100531.44;;;25.39;58.99
48200;BME280;33990;44.602;10.976;2022-08-19T09:51:51;100538.53;;;25.40;58.89
48200;BME280;33990;44.602;10.976;2022-08-19T09:54:23;100539.88;;;25.44;58.81
48200;BME280;33990;44.602;10.976;2022-08-19T09:56:54;100535.97;;;25.47;58.90
48200;BME280;33990;44.602;10.976;2022-08-19T09:59:22;100542.91;;;25.49;58.70
48200;BME280;33990;44.602;10.976;2022-08-19T10:01:49;100531.88;;;25.51;58.83
48200;BME280;33990;44.602;10.976;2022-08-19T10:04:18;100541.53;;;25.53;58.74
48200;BME280;33990;44.602;10.976;2022-08-19T10:06:50;100536.94;;;25.54;58.82
48200;BME280;33990;44.602;10.976;2022-08-19T10:09:21;100535.75;;;25.56;58.77
48200;BME280;33990;44.602;10.976;2022-08-19T10:12:01;100537.44;;;25.57;58.54
48200;BME280;33990;44.602;10.976;2022-08-19T10:14:30;100534.53;;;25.59;58.57
48200;BME280;33990;44.602;10.976;2022-08-19T10:16:57;100534.38;;;25.60;58.55
48200;BME280;33990;44.602;10.976;2022-08-19T10:19:30;100531.47;;;25.62;58.73
48200;BME280;33990;44.602;10.976;2022-08-19T10:22:06;100524.16;;;25.62;58.56
48200;BME280;33990;44.602;10.976;2022-08-19T10:24:38;100530.28;;;25.64;58.50
48200;BME280;33990;44.602;10.976;2022-08-19T10:27:07;100519.44;;;25.64;58.59
48200;BME280;33990;44.602;10.976;2022-08-19T10:29:37;100528.41;;;25.65;58.25
48200;BME280;33990;44.602;10.976;2022-08-19T10:32:12;100519.22;;;25.66;58.39
48200;BME280;33990;44.602;10.976;2022-08-19T10:34:40;100523.47;;;25.69;58.60
48200;BME280;33990;44.602;10.976;2022-08-19T10:37:16;100514.47;;;25.68;58.43
48200;BME280;33990;44.602;10.976;2022-08-19T10:39:57;100510.75;;;25.69;58.45
48200;BME280;33990;44.602;10.976;2022-08-19T10:42:24;100507.19;;;25.69;58.50
48200;BME280;33990;44.602;10.976;2022-08-19T10:44:52;100502.41;;;25.71;58.28
48200;BME280;33990;44.602;10.976;2022-08-19T10:47:19;100504.09;;;25.72;58.29
48200;BME280;33990;44.602;10.976;2022-08-19T10:49:53;100492.25;;;25.73;58.30
48200;BME280;33990;44.602;10.976;2022-08-19T10:52:41;100489.53;;;25.73;58.25
48200;BME280;33990;44.602;10.976;2022-08-19T10:55:19;100466.97;;;25.72;58.27
48200;BME280;33990;44.602;10.976;2022-08-19T10:58:14;100474.09;;;25.73;58.34
48200;BME280;33990;44.602;10.976;2022-08-19T11:00:42;100479.34;;;25.75;58.29
48200;BME280;33990;44.602;10.976;2022-08-19T11:03:12;100481.22;;;25.74;58.28
48200;BME280;33990;44.602;10.976;2022-08-19T11:05:41;100478.31;;;25.76;58.23
48200;BME280;33990;44.602;10.976;2022-08-19T11:08:09;100485.44;;;25.77;58.38
48200;BME280;33990;44.602;10.976;2022-08-19T11:10:53;100476.44;;;25.76;58.19
48200;BME280;33990;44.602;10.976;2022-08-19T11:13:29;100482.72;;;25.77;58.18
48200;BME280;33990;44.602;10.976;2022-08-19T11:16:05;100477.13;;;25.78;58.24
48200;BME280;33990;44.602;10.976;2022-08-19T11:18:38;100479.84;;;25.78;58.15
48200;BME280;33990;44.602;10.976;2022-08-19T11:21:22;100472.56;;;25.79;58.17
48200;BME280;33990;44.602;10.976;2022-08-19T11:23:52;100479.66;;;25.80;58.19
48200;BME280;33990;44.602;10.976;2022-08-19T11:26:22;100477.78;;;25.80;58.14
48200;BME280;33990;44.602;10.976;2022-08-19T11:28:50;100471.53;;;25.80;58.17
48200;BME280;33990;44.602;10.976;2022-08-19T11:31:24;100480.50;;;25.80;57.94
48200;BME280;33990;44.602;10.976;2022-08-19T11:34:00;100483.03;;;25.82;58.17
48200;BME280;33990;44.602;10.976;2022-08-19T11:36:29;100490.34;;;25.81;58.12
48200;BME280;33990;44.602;10.976;2022-08-19T11:38:58;100489.31;;;25.82;58.10
48200;BME280;33990;44.602;10.976;2022-08-19T11:41:26;100490.16;;;25.83;58.13
48200;BME280;33990;44.602;10.976;2022-08-19T11:43:54;100483.03;;;25.82;58.14
48200;BME280;33990;44.602;10.976;2022-08-19T11:46:23;100482.00;;;25.83;58.08
48200;BME280;33990;44.602;10.976;2022-08-19T11:48:51;100474.72;;;25.83;58.16
48200;BME280;33990;44.602;10.976;2022-08-19T11:51:22;100478.25;;;25.84;58.23
48200;BME280;33990;44.602;10.976;2022-08-19T11:53:52;100474.53;;;25.85;57.97
48200;BME280;33990;44.602;10.976;2022-08-19T11:56:21;100480.81;;;25.85;58.10
48200;BME280;33990;44.602;10.976;2022-08-19T11:58:49;100467.41;;;25.84;57.99
48200;BME280;33990;44.602;10.976;2022-08-19T12:01:18;100466.41;;;25.85;58.05
48200;BME280;33990;44.602;10.976;2022-08-19T12:03:48;100459.94;;;25.86;57.89
48200;BME280;33990;44.602;10.976;2022-08-19T12:06:21;100468.09;;;25.86;58.03
48200;BME280;33990;44.602;10.976;2022-08-19T12:08:57;100464.34;;;25.87;57.98
48200;BME280;33990;44.602;10.976;2022-08-19T12:11:25;100464.34;;;25.87;58.12
48200;BME280;33990;44.602;10.976;2022-08-19T12:13:53;100457.03;;;25.87;58.15
48200;BME280;33990;44.602;10.976;2022-08-19T12:16:24;100464.34;;;25.87;58.09
48200;BME280;33990;44.602;10.976;2022-08-19T12:18:55;100458.91;;;25.87;57.87
48200;BME280;33990;44.602;10.976;2022-08-19T12:21:25;100460.59;;;25.88;57.78
48200;BME280;33990;44.602;10.976;2022-08-19T12:23:57;100455.16;;;25.88;57.98
48200;BME280;33990;44.602;10.976;2022-08-19T12:26:26;100456.88;;;25.89;57.82
48200;BME280;33990;44.602;10.976;2022-08-19T12:28:54;100454.16;;;25.89;58.02
48200;BME280;33990;44.602;10.976;2022-08-19T12:31:22;100452.28;;;25.89;57.70
48200;BME280;33990;44.602;10.976;2022-08-19T12:33:49;100454.16;;;25.89;57.89
48200;BME280;33990;44.602;10.976;2022-08-19T12:36:19;100452.28;;;25.89;57.82
48200;BME280;33990;44.602;10.976;2022-08-19T12:38:49;100442.28;;;25.90;57.93
48200;BME280;33990;44.602;10.976;2022-08-19T12:41:18;100439.38;;;25.92;57.75
48200;BME280;33990;44.602;10.976;2022-08-19T12:43:45;100437.69;;;25.91;57.67
48200;BME280;33990;44.602;10.976;2022-08-19T12:46:13;100443.97;;;25.91;57.74
48200;BME280;33990;44.602;10.976;2022-08-19T12:48:44;100441.25;;;25.91;57.63
48200;BME280;33990;44.602;10.976;2022-08-19T12:51:15;100440.22;;;25.92;57.65
48200;BME280;33990;44.602;10.976;2022-08-19T12:53:43;100442.94;;;25.92;57.56
48200;BME280;33990;44.602;10.976;2022-08-19T12:56:11;100449.19;;;25.93;57.65
48200;BME280;33990;44.602;10.976;2022-08-19T12:58:41;100447.34;;;25.93;57.62
48200;BME280;33990;44.602;10.976;2022-08-19T13:01:19;100444.81;;;25.92;57.57
48200;BME280;33990;44.602;10.976;2022-08-19T13:03:50;100434.78;;;25.92;57.60
48200;BME280;33990;44.602;10.976;2022-08-19T13:06:21;100443.59;;;25.94;57.52
48200;BME280;33990;44.602;10.976;2022-08-19T13:08:49;100438.19;;;25.94;57.60
48200;BME280;33990;44.602;10.976;2022-08-19T13:11:19;100440.06;;;25.94;57.57
48200;BME280;33990;44.602;10.976;2022-08-19T13:13:48;100438.19;;;25.94;57.45
48200;BME280;33990;44.602;10.976;2022-08-19T13:16:18;100439.03;;;25.95;57.35
48200;BME280;33990;44.602;10.976;2022-08-19T13:18:48;100441.72;;;25.95;57.42